Time,TemperatureF,DewpointF,PressureIn,WindDirection,WindDirectionDegrees,WindSpeedMPH,WindSpeedGustMPH,Humidity,HourlyPrecipIn,Conditions,Clouds,dailyrainin,SoftwareType,DateUTC
2013-01-26 00:00:00,15.5,12.3,30.09,SW,222,0.0,0.0,87,0.00,,,0.00,WeatherCatV1.02B3,2013-01-26 05:00:00,
2013-01-26 00:05:00,15.5,12.3,30.09,SW,222,0.0,0.0,87,0.00,,,0.00,WeatherCatV1.02B3,2013-01-26 05:05:00,
2013-01-26 00:10:00,15.5,12.6,30.09,SW,222,0.0,0.0,88,0.00,,,0.00,WeatherCatV1.02B3,2013-01-26 05:10:00,
2013-01-26 00:15:00,15.4,12.5,30.09,SW,222,0.0,0.0,88,0.00,,,0.00,WeatherCatV1.02B3,2013-01-26 05:15:00,
2013-01-26 00:20:00,15.4,12.5,30.09,SW,222,0.0,0.0,88,0.00,,,0.00,WeatherCatV1.02B3,2013-01-26 05:20:00,
2013-01-26 00:25:00,15.4,12.5,30.09,SW,222,0.0,0.0,88,0.00,,,0.00,WeatherCatV1.02B3,2013-01-26 05:25:00,
2013-01-26 00:30:00,15.4,12.5,30.09,SW,222,0.0,0.0,88,0.00,,,0.00,WeatherCatV1.02B3,2013-01-26 05:30:00,
2013-01-26 00:35:00,15.4,12.8,30.08,SW,222,0.0,1.0,89,0.00,,,0.00,WeatherCatV1.02B3,2013-01-26 05:35:00,
2013-01-26 00:40:00,15.5,12.8,30.09,SW,222,0.0,0.0,89,0.00,,,0.00,WeatherCatV1.02B3,2013-01-26 05:40:00,
2013-01-26 00:45:00,15.5,12.8,30.08,SW,222,0.0,0.0,89,0.00,,,0.00,WeatherCatV1.02B3,2013-01-26 05:45:00,
2013-01-26 00:50:00,15.4,12.8,30.08,SW,222,0.0,0.0,89,0.00,,,0.00,WeatherCatV1.02B3,2013-01-26 05:50:00,
2013-01-26 00:55:00,15.5,12.8,30.08,SW,222,0.0,0.0,89,0.00,,,0.00,WeatherCatV1.02B3,2013-01-26 05:55:00,
2013-01-26 01:00:00,15.4,12.8,30.08,SW,222,0.0,0.0,89,0.00,,,0.00,WeatherCatV1.02B3,2013-01-26 06:00:00,
2013-01-26 01:05:00,15.3,12.7,30.08,SW,222,0.0,0.0,89,0.00,,,0.00,WeatherCatV1.02B3,2013-01-26 06:05:00,
2013-01-26 01:10:00,15.2,12.3,30.08,SW,222,0.0,0.0,88,0.00,,,0.00,WeatherCatV1.02B3,2013-01-26 06:10:00,
2013-01-26 01:15:00,15.0,12.1,30.08,SW,222,0.0,0.0,88,0.00,,,0.00,WeatherCatV1.02B3,2013-01-26 06:15:00,
2013-01-26 01:20:00,14.9,12.0,30.08,SW,222,0.0,0.0,88,0.00,,,0.00,WeatherCatV1.02B3,2013-01-26 06:20:00,
2013-01-26 01:25:00,14.6,11.7,30.08,SW,222,0.0,0.0,88,0.00,,,0.00,WeatherCatV1.02B3,2013-01-26 06:25:00,
2013-01-26 01:30:00,14.4,11.5,30.08,West,263,0.0,3.0,88,0.00,,,0.00,WeatherCatV1.02B3,2013-01-26 06:30:00,
2013-01-26 01:35:00,14.2,11.3,30.08,West,263,0.0,0.0,88,0.00,,,0.00,WeatherCatV1.02B3,2013-01-26 06:35:00,
2013-01-26 01:40:00,13.8,10.9,30.08,West,263,0.0,0.0,88,0.00,,,0.00,WeatherCatV1.02B3,2013-01-26 06:40:00,
2013-01-26 01:45:00,13.5,10.4,30.08,West,263,0.0,0.0,87,0.00,,,0.00,WeatherCatV1.02B3,2013-01-26 06:45:00,
2013-01-26 01:50:00,13.1,10.2,30.07,West,263,0.0,0.0,88,0.00,,,0.00,WeatherCatV1.02B3,2013-01-26 06:50:00,
2013-01-26 01:55:00,12.8,9.9,30.07,West,263,0.0,0.0,88,0.00,,,0.00,WeatherCatV1.02B3,2013-01-26 06:55:00,
2013-01-26 02:00:00,12.5,9.6,30.07,West,263,0.0,0.0,88,0.00,,,0.00,WeatherCatV1.02B3,2013-01-26 07:00:00,
2013-01-26 02:05:00,12.3,9.4,30.06,West,263,0.0,0.0,88,0.00,,,0.00,WeatherCatV1.02B3,2013-01-26 07:05:00,
2013-01-26 02:10:00,11.9,9.0,30.06,West,263,0.0,0.0,88,0.00,,,0.00,WeatherCatV1.02B3,2013-01-26 07:10:00,
2013-01-26 02:15:00,11.7,8.8,30.06,West,263,0.0,0.0,88,0.00,,,0.00,WeatherCatV1.02B3,2013-01-26 07:15:00,
2013-01-26 02:20:00,11.4,8.6,30.06,West,263,0.0,0.0,88,0.00,,,0.00,WeatherCatV1.02B3,2013-01-26 07:20:00,
2013-01-26 02:25:00,11.2,8.4,30.06,West,263,0.0,0.0,88,0.00,,,0.00,WeatherCatV1.02B3,2013-01-26 07:25:00,
2013-01-26 02:30:00,11.0,8.4,30.06,West,263,0.0,0.0,89,0.00,,,0.00,WeatherCatV1.02B3,2013-01-26 07:30:00,
2013-01-26 02:35:00,10.9,8.3,30.06,West,263,0.0,0.0,89,0.00,,,0.00,WeatherCatV1.02B3,2013-01-26 07:35:00,
2013-01-26 02:40:00,10.7,8.1,30.06,West,263,0.0,0.0,89,0.00,,,0.00,WeatherCatV1.02B3,2013-01-26 07:40:00,
2013-01-26 02:45:00,10.5,7.9,30.06,West,263,0.0,0.0,89,0.00,,,0.00,WeatherCatV1.02B3,2013-01-26 07:45:00,
2013-01-26 02:50:00,10.2,7.4,30.06,West,263,0.0,0.0,88,0.00,,,0.00,WeatherCatV1.02B3,2013-01-26 07:50:00,
2013-01-26 02:55:00,10.0,7.2,30.05,West,263,0.0,0.0,88,0.00,,,0.00,WeatherCatV1.02B3,2013-01-26 07:55:00,
2013-01-26 03:00:00,9.7,7.1,30.06,West,263,0.0,0.0,89,0.00,,,0.00,WeatherCatV1.02B3,2013-01-26 08:00:00,
2013-01-26 03:05:00,9.5,6.9,30.05,West,263,0.0,0.0,89,0.00,,,0.00,WeatherCatV1.02B3,2013-01-26 08:05:00,
2013-01-26 03:10:00,9.3,6.5,30.05,West,263,0.0,0.0,88,0.00,,,0.00,WeatherCatV1.02B3,2013-01-26 08:10:00,
2013-01-26 03:15:00,9.2,6.6,30.05,West,263,0.0,0.0,89,0.00,,,0.00,WeatherCatV1.02B3,2013-01-26 08:15:00,
2013-01-26 03:20:00,9.2,6.6,30.05,West,263,0.0,0.0,89,0.00,,,0.00,WeatherCatV1.02B3,2013-01-26 08:20:00,
2013-01-26 03:25:00,9.1,6.5,30.05,West,263,0.0,0.0,89,0.00,,,0.00,WeatherCatV1.02B3,2013-01-26 08:25:00,
2013-01-26 03:30:00,9.1,6.5,30.05,West,263,0.0,0.0,89,0.00,,,0.00,WeatherCatV1.02B3,2013-01-26 08:30:00,
2013-01-26 03:35:00,9.0,6.4,30.05,West,263,0.0,0.0,89,0.00,,,0.00,WeatherCatV1.02B3,2013-01-26 08:35:00,
2013-01-26 03:40:00,8.9,6.3,30.05,West,263,0.0,0.0,89,0.00,,,0.00,WeatherCatV1.02B3,2013-01-26 08:40:00,
2013-01-26 03:45:00,8.8,6.2,30.05,West,263,0.0,0.0,89,0.00,,,0.00,WeatherCatV1.02B3,2013-01-26 08:45:00,
2013-01-26 03:50:00,8.7,6.1,30.05,West,263,0.0,0.0,89,0.00,,,0.00,WeatherCatV1.02B3,2013-01-26 08:50:00,
2013-01-26 03:55:00,8.6,6.0,30.05,West,263,0.0,0.0,89,0.00,,,0.00,WeatherCatV1.02B3,2013-01-26 08:55:00,
2013-01-26 04:00:00,8.5,5.9,30.05,West,263,0.0,0.0,89,0.00,,,0.00,WeatherCatV1.02B3,2013-01-26 09:00:00,
2013-01-26 04:05:00,8.3,5.7,30.05,West,263,0.0,0.0,89,0.00,,,0.00,WeatherCatV1.02B3,2013-01-26 09:05:00,
2013-01-26 04:10:00,8.4,5.8,30.05,West,263,0.0,0.0,89,0.00,,,0.00,WeatherCatV1.02B3,2013-01-26 09:10:00,
2013-01-26 04:15:00,8.4,6.1,30.05,West,263,0.0,0.0,90,0.00,,,0.00,WeatherCatV1.02B3,2013-01-26 09:15:00,
2013-01-26 04:20:00,8.3,5.7,30.05,West,263,0.0,0.0,89,0.00,,,0.00,WeatherCatV1.02B3,2013-01-26 09:20:00,
2013-01-26 04:25:00,8.4,6.1,30.05,West,263,0.0,0.0,90,0.00,,,0.00,WeatherCatV1.02B3,2013-01-26 09:25:00,
2013-01-26 04:30:00,8.3,5.7,30.05,West,263,0.0,0.0,89,0.00,,,0.00,WeatherCatV1.02B3,2013-01-26 09:30:00,
2013-01-26 04:35:00,8.2,5.6,30.05,West,263,0.0,1.0,89,0.00,,,0.00,WeatherCatV1.02B3,2013-01-26 09:35:00,
2013-01-26 04:40:00,8.1,5.5,30.05,West,263,0.0,0.0,89,0.00,,,0.00,WeatherCatV1.02B3,2013-01-26 09:40:00,
2013-01-26 04:45:00,8.0,5.4,30.05,West,263,0.0,1.0,89,0.00,,,0.00,WeatherCatV1.02B3,2013-01-26 09:45:00,
2013-01-26 04:50:00,7.8,5.2,30.05,West,263,0.0,0.0,89,0.00,,,0.00,WeatherCatV1.02B3,2013-01-26 09:50:00,
2013-01-26 04:55:00,7.8,5.2,30.05,West,263,0.0,1.0,89,0.00,,,0.00,WeatherCatV1.02B3,2013-01-26 09:55:00,
2013-01-26 05:00:00,7.8,5.2,30.05,West,263,0.0,0.0,89,0.00,,,0.00,WeatherCatV1.02B3,2013-01-26 10:00:00,
2013-01-26 05:05:00,7.7,5.1,30.05,West,263,0.0,0.0,89,0.00,,,0.00,WeatherCatV1.02B3,2013-01-26 10:05:00,
2013-01-26 05:10:00,7.5,5.0,30.05,West,263,0.0,0.0,89,0.00,,,0.00,WeatherCatV1.02B3,2013-01-26 10:10:00,
2013-01-26 05:15:00,7.4,4.9,30.05,West,263,0.0,0.0,89,0.00,,,0.00,WeatherCatV1.02B3,2013-01-26 10:15:00,
2013-01-26 05:20:00,7.3,4.8,30.06,West,263,0.0,0.0,89,0.00,,,0.00,WeatherCatV1.02B3,2013-01-26 10:20:00,
2013-01-26 05:24:00,7.4,4.9,30.06,West,263,0.0,0.0,89,0.00,,,0.00,WeatherCatV1.02B3,2013-01-26 10:24:00,
2013-01-26 05:29:00,7.3,4.8,30.06,West,263,0.0,0.0,89,0.00,,,0.00,WeatherCatV1.02B3,2013-01-26 10:29:00,
2013-01-26 05:34:00,7.2,4.7,30.06,West,263,0.0,0.0,89,0.00,,,0.00,WeatherCatV1.02B3,2013-01-26 10:34:00,
2013-01-26 05:39:00,7.1,4.3,30.07,West,263,0.0,0.0,88,0.00,,,0.00,WeatherCatV1.02B3,2013-01-26 10:39:00,
2013-01-26 05:44:00,7.1,4.3,30.07,West,263,0.0,0.0,88,0.00,,,0.00,WeatherCatV1.02B3,2013-01-26 10:44:00,
2013-01-26 05:49:00,7.0,4.5,30.07,West,263,0.0,0.0,89,0.00,,,0.00,WeatherCatV1.02B3,2013-01-26 10:49:00,
2013-01-26 05:54:00,7.1,4.6,30.07,West,263,0.0,1.0,89,0.00,,,0.00,WeatherCatV1.02B3,2013-01-26 10:54:00,
2013-01-26 05:59:00,7.1,4.6,30.07,West,263,0.0,0.0,89,0.00,,,0.00,WeatherCatV1.02B3,2013-01-26 10:59:00,
2013-01-26 06:04:00,6.9,4.1,30.07,West,263,0.0,0.0,88,0.00,,,0.00,WeatherCatV1.02B3,2013-01-26 11:04:00,
2013-01-26 06:09:00,6.9,4.1,30.07,West,263,0.0,0.0,88,0.00,,,0.00,WeatherCatV1.02B3,2013-01-26 11:09:00,
2013-01-26 06:14:00,6.9,4.4,30.07,West,263,0.0,0.0,89,0.00,,,0.00,WeatherCatV1.02B3,2013-01-26 11:14:00,
2013-01-26 06:19:00,6.9,4.4,30.08,West,263,0.0,1.0,89,0.00,,,0.00,WeatherCatV1.02B3,2013-01-26 11:19:00,
2013-01-26 06:24:00,7.0,4.5,30.08,West,263,0.0,0.0,89,0.00,,,0.00,WeatherCatV1.02B3,2013-01-26 11:24:00,
2013-01-26 06:29:00,7.1,4.6,30.08,West,263,0.0,2.0,89,0.00,,,0.00,WeatherCatV1.02B3,2013-01-26 11:29:00,
2013-01-26 06:34:00,7.1,4.6,30.08,West,263,0.0,0.0,89,0.00,,,0.00,WeatherCatV1.02B3,2013-01-26 11:34:00,
2013-01-26 06:39:00,7.2,4.7,30.08,West,263,0.0,0.0,89,0.00,,,0.00,WeatherCatV1.02B3,2013-01-26 11:39:00,
2013-01-26 06:44:00,7.1,4.3,30.08,West,263,0.0,0.0,88,0.00,,,0.00,WeatherCatV1.02B3,2013-01-26 11:44:00,
2013-01-26 06:49:00,7.1,4.3,30.08,West,263,0.0,4.0,88,0.00,,,0.00,WeatherCatV1.02B3,2013-01-26 11:49:00,
2013-01-26 06:54:00,7.3,4.5,30.08,West,263,0.0,0.0,88,0.00,,,0.00,WeatherCatV1.02B3,2013-01-26 11:54:00,
2013-01-26 06:59:00,7.3,4.5,30.08,WNW,295,0.0,4.0,88,0.00,,,0.00,WeatherCatV1.02B3,2013-01-26 11:59:00,
2013-01-26 07:04:00,7.4,4.6,30.09,WNW,303,0.0,0.0,88,0.00,,,0.00,WeatherCatV1.02B3,2013-01-26 12:04:00,
2013-01-26 07:09:00,7.5,4.7,30.09,WNW,296,1.0,2.0,88,0.00,,,0.00,WeatherCatV1.02B3,2013-01-26 12:09:00,
2013-01-26 07:14:00,7.7,4.9,30.09,West,273,0.0,1.0,88,0.00,,,0.00,WeatherCatV1.02B3,2013-01-26 12:14:00,
2013-01-26 07:19:00,7.8,5.0,30.09,West,273,0.0,0.0,88,0.00,,,0.00,WeatherCatV1.02B3,2013-01-26 12:19:00,
2013-01-26 07:24:00,7.8,4.8,30.09,West,273,0.0,2.0,87,0.00,,,0.00,WeatherCatV1.02B3,2013-01-26 12:24:00,
2013-01-26 07:29:00,7.9,4.9,30.09,West,273,1.0,2.0,87,0.00,,,0.00,WeatherCatV1.02B3,2013-01-26 12:29:00,
2013-01-26 07:34:00,8.1,5.0,30.09,NW,312,3.0,3.0,87,0.00,,,0.00,WeatherCatV1.02B3,2013-01-26 12:34:00,
2013-01-26 07:39:00,8.1,4.8,30.10,West,278,0.0,4.0,86,0.00,,,0.00,WeatherCatV1.02B3,2013-01-26 12:39:00,
2013-01-26 07:44:00,8.5,5.2,30.10,NW,313,0.0,3.0,86,0.00,,,0.00,WeatherCatV1.02B3,2013-01-26 12:44:00,
2013-01-26 07:49:00,8.7,5.4,30.10,NW,315,0.0,0.0,86,0.00,,,0.00,WeatherCatV1.02B3,2013-01-26 12:49:00,
2013-01-26 07:54:00,9.0,5.7,30.10,WNW,296,0.0,2.0,86,0.00,,,0.00,WeatherCatV1.02B3,2013-01-26 12:54:00,
2013-01-26 07:59:00,9.2,5.9,30.10,West,270,0.0,4.0,86,0.00,,,0.00,WeatherCatV1.02B3,2013-01-26 12:59:00,
2013-01-26 08:04:00,9.5,5.9,30.10,WNW,298,0.0,3.0,85,0.00,,,0.00,WeatherCatV1.02B3,2013-01-26 13:04:00,
2013-01-26 08:09:00,9.8,6.0,30.10,WNW,294,0.0,2.0,84,0.00,,,0.00,WeatherCatV1.02B3,2013-01-26 13:09:00,
2013-01-26 08:14:00,10.0,6.2,30.10,NW,320,0.0,2.0,84,0.00,,,0.00,WeatherCatV1.02B3,2013-01-26 13:14:00,
2013-01-26 08:19:00,10.2,6.1,30.10,West,263,0.0,2.0,83,0.00,,,0.00,WeatherCatV1.02B3,2013-01-26 13:19:00,
2013-01-26 08:24:00,10.5,6.1,30.11,West,277,2.0,5.0,82,0.00,,,0.00,WeatherCatV1.02B3,2013-01-26 13:24:00,
2013-01-26 08:29:00,10.8,6.4,30.11,NNW,331,4.0,6.0,82,0.00,,,0.00,WeatherCatV1.02B3,2013-01-26 13:29:00,
2013-01-26 08:34:00,11.0,6.1,30.10,WNW,292,0.0,2.0,80,0.00,,,0.00,WeatherCatV1.02B3,2013-01-26 13:34:00,
2013-01-26 08:39:00,11.3,6.1,30.11,WNW,298,2.0,4.0,79,0.00,,,0.00,WeatherCatV1.02B3,2013-01-26 13:39:00,
2013-01-26 08:44:00,11.6,6.1,30.11,NW,318,3.0,3.0,78,0.00,,,0.00,WeatherCatV1.02B3,2013-01-26 13:44:00,
2013-01-26 08:49:00,11.8,5.7,30.11,NW,317,0.0,4.0,76,0.00,,,0.00,WeatherCatV1.02B3,2013-01-26 13:49:00,
2013-01-26 08:54:00,12.2,6.1,30.11,NNW,340,1.0,5.0,76,0.00,,,0.00,WeatherCatV1.02B3,2013-01-26 13:54:00,
2013-01-26 09:01:00,12.6,5.9,30.12,NNW,329,4.0,4.0,74,0.00,,,0.00,WeatherCatV1.02B3,2013-01-26 14:01:00,
2013-01-26 09:06:00,12.9,5.9,30.12,West,279,0.0,3.0,73,0.00,,,0.00,WeatherCatV1.02B3,2013-01-26 14:06:00,
2013-01-26 09:11:00,13.3,6.3,30.11,NNW,342,0.0,6.0,73,0.00,,,0.00,WeatherCatV1.02B3,2013-01-26 14:11:00,
2013-01-26 09:16:00,13.6,6.3,30.11,WNW,289,3.0,8.0,72,0.00,,,0.00,WeatherCatV1.02B3,2013-01-26 14:16:00,
2013-01-26 09:21:00,13.7,5.8,30.11,WNW,300,4.0,7.0,70,0.00,,,0.00,WeatherCatV1.02B3,2013-01-26 14:21:00,
2013-01-26 09:26:00,14.0,5.7,30.11,NW,318,4.0,6.0,69,0.00,,,0.00,WeatherCatV1.02B3,2013-01-26 14:26:00,
2013-01-26 09:31:00,14.3,5.7,30.11,SSW,200,1.0,12.0,68,0.00,,,0.00,WeatherCatV1.02B3,2013-01-26 14:31:00,
2013-01-26 09:36:00,14.5,5.9,30.10,North,9,3.0,7.0,68,0.00,,,0.00,WeatherCatV1.02B3,2013-01-26 14:36:00,
2013-01-26 09:41:00,14.6,5.7,30.10,North,355,3.0,6.0,67,0.00,,,0.00,WeatherCatV1.02B3,2013-01-26 14:41:00,
2013-01-26 09:46:00,14.9,6.0,30.10,North,355,5.0,8.0,67,0.00,,,0.00,WeatherCatV1.02B3,2013-01-26 14:46:00,
2013-01-26 09:51:00,15.2,5.9,30.10,ENE,77,0.0,2.0,66,0.00,,,0.00,WeatherCatV1.02B3,2013-01-26 14:51:00,
2013-01-26 09:56:00,15.4,6.4,30.11,WSW,258,1.0,2.0,67,0.00,,,0.00,WeatherCatV1.02B3,2013-01-26 14:56:00,
2013-01-26 10:01:00,15.4,5.4,30.11,West,279,3.0,8.0,64,0.00,,,0.00,WeatherCatV1.02B3,2013-01-26 15:01:00,
2013-01-26 10:06:00,15.4,5.8,30.11,WNW,286,2.0,5.0,65,0.00,,,0.00,WeatherCatV1.02B3,2013-01-26 15:06:00,
2013-01-26 10:11:00,15.7,6.1,30.11,NNE,20,4.0,4.0,65,0.00,,,0.00,WeatherCatV1.02B3,2013-01-26 15:11:00,
2013-01-26 10:16:00,16.1,6.4,30.11,West,271,3.0,7.0,65,0.00,,,0.00,WeatherCatV1.02B3,2013-01-26 15:16:00,
2013-01-26 10:21:00,16.0,5.7,30.11,WNW,294,4.0,10.0,63,0.00,,,0.00,WeatherCatV1.02B3,2013-01-26 15:21:00,
2013-01-26 10:26:00,16.2,6.2,30.11,WNW,300,3.0,5.0,64,0.00,,,0.00,WeatherCatV1.02B3,2013-01-26 15:26:00,
2013-01-26 10:31:00,16.6,6.2,30.11,WNW,294,1.0,7.0,63,0.00,,,0.00,WeatherCatV1.02B3,2013-01-26 15:31:00,
2013-01-26 10:36:00,16.5,5.8,30.11,NNW,348,1.0,7.0,62,0.00,,,0.00,WeatherCatV1.02B3,2013-01-26 15:36:00,
2013-01-26 10:41:00,16.7,6.0,30.11,WNW,297,3.0,8.0,62,0.00,,,0.00,WeatherCatV1.02B3,2013-01-26 15:41:00,
2013-01-26 10:46:00,16.7,6.0,30.10,NW,308,2.0,5.0,62,0.00,,,0.00,WeatherCatV1.02B3,2013-01-26 15:46:00,
2013-01-26 10:51:00,17.0,6.3,30.10,NNW,331,4.0,9.0,62,0.00,,,0.00,WeatherCatV1.02B3,2013-01-26 15:51:00,
2013-01-26 10:56:00,17.0,5.5,30.10,NW,319,4.0,9.0,60,0.00,,,0.00,WeatherCatV1.02B3,2013-01-26 15:56:00,
2013-01-26 11:01:00,17.3,5.8,30.10,WNW,298,3.0,7.0,60,0.00,,,0.00,WeatherCatV1.02B3,2013-01-26 16:01:00,
2013-01-26 11:06:00,17.5,6.4,30.10,WNW,287,5.0,8.0,61,0.00,,,0.00,WeatherCatV1.02B3,2013-01-26 16:06:00,
2013-01-26 11:11:00,17.4,5.2,30.10,West,279,4.0,11.0,58,0.00,,,0.00,WeatherCatV1.02B3,2013-01-26 16:11:00,
2013-01-26 11:16:00,17.4,5.6,30.09,NW,306,4.0,6.0,59,0.00,,,0.00,WeatherCatV1.02B3,2013-01-26 16:16:00,
2013-01-26 11:21:00,17.8,5.6,30.09,NNW,338,6.0,10.0,58,0.00,,,0.00,WeatherCatV1.02B3,2013-01-26 16:21:00,
2013-01-26 11:26:00,18.1,6.2,30.09,West,279,3.0,3.0,59,0.00,,,0.00,WeatherCatV1.02B3,2013-01-26 16:26:00,
2013-01-26 11:31:00,18.5,5.8,30.09,WNW,291,2.0,9.0,57,0.00,,,0.00,WeatherCatV1.02B3,2013-01-26 16:31:00,
2013-01-26 11:36:00,18.9,5.8,30.08,North,355,0.0,4.0,56,0.00,,,0.00,WeatherCatV1.02B3,2013-01-26 16:36:00,
2013-01-26 11:41:00,19.5,6.4,30.08,North,355,0.0,2.0,56,0.00,,,0.00,WeatherCatV1.02B3,2013-01-26 16:41:00,
2013-01-26 11:46:00,19.7,6.2,30.08,WNW,288,4.0,5.0,55,0.00,,,0.00,WeatherCatV1.02B3,2013-01-26 16:46:00,
2013-01-26 11:51:00,20.0,6.9,30.08,NW,315,3.0,4.0,56,0.00,,,0.00,WeatherCatV1.02B3,2013-01-26 16:51:00,
2013-01-26 11:56:00,20.1,6.6,30.08,West,264,6.0,8.0,55,0.00,,,0.00,WeatherCatV1.02B3,2013-01-26 16:56:00,
2013-01-26 12:01:00,19.8,5.5,30.08,WNW,296,1.0,6.0,53,0.00,,,0.00,WeatherCatV1.02B3,2013-01-26 17:01:00,
2013-01-26 12:06:00,20.0,6.1,30.08,West,267,4.0,8.0,54,0.00,,,0.00,WeatherCatV1.02B3,2013-01-26 17:06:00,
2013-01-26 12:11:00,20.3,6.3,30.08,WNW,288,2.0,6.0,54,0.00,,,0.00,WeatherCatV1.02B3,2013-01-26 17:11:00,
2013-01-26 12:16:00,20.8,7.2,30.08,WSW,250,0.0,4.0,55,0.00,,,0.00,WeatherCatV1.02B3,2013-01-26 17:16:00,
2013-01-26 12:21:00,20.9,6.9,30.07,NW,306,0.0,7.0,54,0.00,,,0.00,WeatherCatV1.02B3,2013-01-26 17:21:00,
2013-01-26 12:26:00,21.0,6.6,30.08,West,277,5.0,9.0,53,0.00,,,0.00,WeatherCatV1.02B3,2013-01-26 17:26:00,
2013-01-26 12:31:00,21.1,7.1,30.07,West,269,1.0,6.0,54,0.00,,,0.00,WeatherCatV1.02B3,2013-01-26 17:31:00,
2013-01-26 12:36:00,21.1,7.1,30.07,NW,308,5.0,8.0,54,0.00,,,0.00,WeatherCatV1.02B3,2013-01-26 17:36:00,
2013-01-26 12:41:00,21.3,6.4,30.07,WNW,292,3.0,11.0,52,0.00,,,0.00,WeatherCatV1.02B3,2013-01-26 17:41:00,
2013-01-26 12:46:00,21.5,7.1,30.07,West,271,0.0,3.0,53,0.00,,,0.00,WeatherCatV1.02B3,2013-01-26 17:46:00,
2013-01-26 12:51:00,21.8,6.5,30.07,WSW,243,3.0,9.0,51,0.00,,,0.00,WeatherCatV1.02B3,2013-01-26 17:51:00,
2013-01-26 12:56:00,21.5,5.3,30.07,WNW,300,7.0,8.0,49,0.00,,,0.00,WeatherCatV1.02B3,2013-01-26 17:56:00,
2013-01-26 13:01:00,21.4,5.2,30.07,WNW,282,10.0,12.0,49,0.00,,,0.00,WeatherCatV1.02B3,2013-01-26 18:01:00,
2013-01-26 13:08:00,21.1,4.1,30.07,West,267,4.0,9.0,47,0.00,,,0.00,WeatherCatV1.02B3,2013-01-26 18:08:00,
2013-01-26 13:13:00,21.4,4.8,30.06,WNW,284,0.0,13.0,48,0.00,,,0.00,WeatherCatV1.02B3,2013-01-26 18:13:00,
2013-01-26 13:18:00,21.5,4.0,30.07,NW,312,1.0,8.0,46,0.00,,,0.00,WeatherCatV1.02B3,2013-01-26 18:18:00,
2013-01-26 13:23:00,21.7,5.1,30.07,West,281,7.0,7.0,48,0.00,,,0.00,WeatherCatV1.02B3,2013-01-26 18:23:00,
2013-01-26 13:28:00,21.5,3.0,30.07,WSW,257,1.0,5.0,44,0.00,,,0.00,WeatherCatV1.02B3,2013-01-26 18:28:00,
2013-01-26 13:33:00,21.7,3.7,30.07,WNW,297,5.0,10.0,45,0.00,,,0.00,WeatherCatV1.02B3,2013-01-26 18:33:00,
2013-01-26 13:38:00,22.1,3.6,30.07,West,276,7.0,13.0,44,0.00,,,0.00,WeatherCatV1.02B3,2013-01-26 18:38:00,
2013-01-26 13:43:00,21.6,2.6,30.07,WNW,294,13.0,13.0,43,0.00,,,0.00,WeatherCatV1.02B3,2013-01-26 18:43:00,
2013-01-26 13:48:00,21.6,3.1,30.07,WNW,287,2.0,8.0,44,0.00,,,0.00,WeatherCatV1.02B3,2013-01-26 18:48:00,
2013-01-26 13:53:00,21.7,1.7,30.07,West,278,2.0,7.0,41,0.00,,,0.00,WeatherCatV1.02B3,2013-01-26 18:53:00,
2013-01-26 13:58:00,21.9,2.4,30.07,NW,304,7.0,9.0,42,0.00,,,0.00,WeatherCatV1.02B3,2013-01-26 18:58:00,
2013-01-26 14:03:00,21.7,1.1,30.07,NNW,334,4.0,13.0,40,0.00,,,0.00,WeatherCatV1.02B3,2013-01-26 19:03:00,
2013-01-26 14:08:00,21.9,1.9,30.07,West,273,3.0,6.0,41,0.00,,,0.00,WeatherCatV1.02B3,2013-01-26 19:08:00,
2013-01-26 14:13:00,22.2,2.6,30.08,West,281,0.0,0.0,42,0.00,,,0.00,WeatherCatV1.02B3,2013-01-26 19:13:00,
2013-01-26 14:18:00,22.5,1.9,30.08,WNW,284,5.0,8.0,40,0.00,,,0.00,WeatherCatV1.02B3,2013-01-26 19:18:00,
2013-01-26 14:23:00,22.2,1.6,30.08,WNW,302,8.0,9.0,40,0.00,,,0.00,WeatherCatV1.02B3,2013-01-26 19:23:00,
2013-01-26 14:28:00,22.0,1.4,30.08,West,270,7.0,15.0,40,0.00,,,0.00,WeatherCatV1.02B3,2013-01-26 19:28:00,
2013-01-26 14:33:00,21.7,0.6,30.08,WNW,293,5.0,14.0,39,0.00,,,0.00,WeatherCatV1.02B3,2013-01-26 19:33:00,
2013-01-26 14:38:00,21.6,1.1,30.09,NW,315,10.0,10.0,40,0.00,,,0.00,WeatherCatV1.02B3,2013-01-26 19:38:00,
2013-01-26 14:43:00,21.6,1.1,30.08,WNW,287,5.0,10.0,40,0.00,,,0.00,WeatherCatV1.02B3,2013-01-26 19:43:00,
2013-01-26 14:48:00,21.8,1.8,30.09,North,351,0.0,6.0,41,0.00,,,0.00,WeatherCatV1.02B3,2013-01-26 19:48:00,
2013-01-26 14:53:00,21.9,1.3,30.09,NW,316,6.0,16.0,40,0.00,,,0.00,WeatherCatV1.02B3,2013-01-26 19:53:00,
2013-01-26 14:58:00,21.8,1.2,30.09,West,275,1.0,15.0,40,0.00,,,0.00,WeatherCatV1.02B3,2013-01-26 19:58:00,
2013-01-26 15:03:00,21.7,1.7,30.09,WNW,291,2.0,8.0,41,0.00,,,0.00,WeatherCatV1.02B3,2013-01-26 20:03:00,
2013-01-26 15:08:00,22.0,1.9,30.10,WSW,256,0.0,5.0,41,0.00,,,0.00,WeatherCatV1.02B3,2013-01-26 20:08:00,
2013-01-26 15:13:00,22.0,0.9,30.10,West,271,8.0,13.0,39,0.00,,,0.00,WeatherCatV1.02B3,2013-01-26 20:13:00,
2013-01-26 15:18:00,22.0,1.4,30.11,NNE,15,0.0,8.0,40,0.00,,,0.00,WeatherCatV1.02B3,2013-01-26 20:18:00,
2013-01-26 15:23:00,21.9,0.8,30.11,WNW,303,11.0,14.0,39,0.00,,,0.00,WeatherCatV1.02B3,2013-01-26 20:23:00,
2013-01-26 15:28:00,21.9,1.9,30.11,NW,305,2.0,9.0,41,0.00,,,0.00,WeatherCatV1.02B3,2013-01-26 20:28:00,
2013-01-26 15:33:00,21.8,1.2,30.11,North,0,0.0,12.0,40,0.00,,,0.00,WeatherCatV1.02B3,2013-01-26 20:33:00,
2013-01-26 15:38:00,21.6,1.1,30.11,WNW,291,7.0,7.0,40,0.00,,,0.00,WeatherCatV1.02B3,2013-01-26 20:38:00,
2013-01-26 15:43:00,21.4,0.9,30.11,West,279,0.0,9.0,40,0.00,,,0.00,WeatherCatV1.02B3,2013-01-26 20:43:00,
2013-01-26 15:48:00,21.2,0.7,30.11,NNW,329,3.0,10.0,40,0.00,,,0.00,WeatherCatV1.02B3,2013-01-26 20:48:00,
2013-01-26 15:53:00,21.0,0.5,30.11,NW,316,0.0,3.0,40,0.00,,,0.00,WeatherCatV1.02B3,2013-01-26 20:53:00,
2013-01-26 15:58:00,20.8,0.3,30.11,WNW,289,0.0,2.0,40,0.00,,,0.00,WeatherCatV1.02B3,2013-01-26 20:58:00,
2013-01-26 16:03:00,20.7,0.8,30.12,WNW,302,2.0,6.0,41,0.00,,,0.00,WeatherCatV1.02B3,2013-01-26 21:03:00,
2013-01-26 16:08:00,20.8,0.3,30.12,WNW,290,3.0,10.0,40,0.00,,,0.00,WeatherCatV1.02B3,2013-01-26 21:08:00,
2013-01-26 16:13:00,20.7,0.8,30.13,WNW,282,2.0,5.0,41,0.00,,,0.00,WeatherCatV1.02B3,2013-01-26 21:13:00,
2013-01-26 16:18:00,20.6,-0.4,30.13,WNW,295,4.0,7.0,39,0.00,,,0.00,WeatherCatV1.02B3,2013-01-26 21:18:00,
2013-01-26 16:23:00,20.5,0.1,30.13,WNW,282,3.0,7.0,40,0.00,,,0.00,WeatherCatV1.02B3,2013-01-26 21:23:00,
2013-01-26 16:28:00,20.4,0.5,30.13,NW,304,8.0,16.0,41,0.00,,,0.00,WeatherCatV1.02B3,2013-01-26 21:28:00,
2013-01-26 16:33:00,20.3,-0.1,30.13,West,261,5.0,8.0,40,0.00,,,0.00,WeatherCatV1.02B3,2013-01-26 21:33:00,
2013-01-26 16:38:00,20.2,-0.2,30.13,NW,317,1.0,6.0,40,0.00,,,0.00,WeatherCatV1.02B3,2013-01-26 21:38:00,
2013-01-26 16:43:00,20.0,0.1,30.14,West,281,0.0,2.0,41,0.00,,,0.00,WeatherCatV1.02B3,2013-01-26 21:43:00,
2013-01-26 16:48:00,19.8,-0.1,30.14,NW,311,10.0,14.0,41,0.00,,,0.00,WeatherCatV1.02B3,2013-01-26 21:48:00,
2013-01-26 16:53:00,19.7,-2.3,30.15,WNW,286,10.0,13.0,37,0.00,,,0.00,WeatherCatV1.02B3,2013-01-26 21:53:00,
2013-01-26 16:58:00,19.4,-3.1,30.15,West,277,3.0,6.0,36,0.00,,,0.00,WeatherCatV1.02B3,2013-01-26 21:58:00,
2013-01-26 17:03:00,19.0,-3.5,30.15,WNW,282,10.0,16.0,36,0.00,,,0.00,WeatherCatV1.02B3,2013-01-26 22:03:00,
2013-01-26 17:08:00,18.8,-4.3,30.16,West,273,11.0,11.0,35,0.00,,,0.00,WeatherCatV1.02B3,2013-01-26 22:08:00,
2013-01-26 17:13:00,18.5,-4.0,30.16,NNW,336,4.0,11.0,36,0.00,,,0.00,WeatherCatV1.02B3,2013-01-26 22:13:00,
2013-01-26 17:18:00,18.3,-4.7,30.16,WNW,293,5.0,14.0,35,0.00,,,0.00,WeatherCatV1.02B3,2013-01-26 22:18:00,
2013-01-26 17:23:00,18.1,-4.9,30.16,West,267,4.0,6.0,35,0.00,,,0.00,WeatherCatV1.02B3,2013-01-26 22:23:00,
2013-01-26 17:28:00,17.9,-5.1,30.16,WNW,291,4.0,17.0,35,0.00,,,0.00,WeatherCatV1.02B3,2013-01-26 22:28:00,
2013-01-26 17:33:00,17.8,-5.8,30.17,WNW,288,6.0,11.0,34,0.00,,,0.00,WeatherCatV1.02B3,2013-01-26 22:33:00,
2013-01-26 17:38:00,17.7,-5.3,30.17,WNW,290,4.0,7.0,35,0.00,,,0.00,WeatherCatV1.02B3,2013-01-26 22:38:00,
2013-01-26 17:43:00,17.5,-5.4,30.17,WNW,295,6.0,13.0,35,0.00,,,0.00,WeatherCatV1.02B3,2013-01-26 22:43:00,
2013-01-26 17:48:00,17.4,-6.1,30.17,NW,304,3.0,11.0,34,0.00,,,0.00,WeatherCatV1.02B3,2013-01-26 22:48:00,
2013-01-26 17:53:00,17.3,-6.2,30.18,WNW,294,0.0,8.0,34,0.00,,,0.00,WeatherCatV1.02B3,2013-01-26 22:53:00,
2013-01-26 17:58:00,17.1,-6.4,30.18,NW,316,6.0,18.0,34,0.00,,,0.00,WeatherCatV1.02B3,2013-01-26 22:58:00,
2013-01-26 18:03:00,16.9,-6.0,30.18,West,272,7.0,20.0,35,0.00,,,0.00,WeatherCatV1.02B3,2013-01-26 23:03:00,
2013-01-26 18:08:00,16.8,-5.5,30.19,WNW,293,2.0,7.0,36,0.00,,,0.00,WeatherCatV1.02B3,2013-01-26 23:08:00,
2013-01-26 18:13:00,16.9,-6.0,30.19,WNW,301,12.0,14.0,35,0.00,,,0.00,WeatherCatV1.02B3,2013-01-26 23:13:00,
2013-01-26 18:18:00,16.9,-5.4,30.19,WNW,283,4.0,15.0,36,0.00,,,0.00,WeatherCatV1.02B3,2013-01-26 23:18:00,
2013-01-26 18:23:00,16.9,-5.4,30.20,WNW,293,6.0,11.0,36,0.00,,,0.00,WeatherCatV1.02B3,2013-01-26 23:23:00,
2013-01-26 18:28:00,16.8,-5.5,30.20,NW,314,0.0,12.0,36,0.00,,,0.00,WeatherCatV1.02B3,2013-01-26 23:28:00,
2013-01-26 18:33:00,16.8,-4.9,30.20,North,0,3.0,11.0,37,0.00,,,0.00,WeatherCatV1.02B3,2013-01-26 23:33:00,
2013-01-26 18:38:00,16.7,-3.9,30.20,NNW,346,3.0,4.0,39,0.00,,,0.00,WeatherCatV1.02B3,2013-01-26 23:38:00,
2013-01-26 18:43:00,16.6,-4.5,30.20,West,278,0.0,15.0,38,0.00,,,0.00,WeatherCatV1.02B3,2013-01-26 23:43:00,
2013-01-26 18:48:00,16.6,-4.0,30.20,NW,317,6.0,20.0,39,0.00,,,0.00,WeatherCatV1.02B3,2013-01-26 23:48:00,
2013-01-26 18:53:00,16.5,-4.1,30.21,West,273,3.0,14.0,39,0.00,,,0.00,WeatherCatV1.02B3,2013-01-26 23:53:00,
2013-01-26 18:58:00,16.3,-3.2,30.21,West,281,5.0,11.0,41,0.00,,,0.00,WeatherCatV1.02B3,2013-01-26 23:58:00,
2013-01-26 19:03:00,16.1,-3.4,30.21,NW,308,3.0,13.0,41,0.00,,,0.00,WeatherCatV1.02B3,2013-01-27 00:03:00,
2013-01-26 19:08:00,16.1,-2.9,30.21,NW,308,3.0,9.0,42,0.00,,,0.00,WeatherCatV1.02B3,2013-01-27 00:08:00,
2013-01-26 19:13:00,15.9,-2.1,30.21,West,271,4.0,16.0,44,0.00,,,0.00,WeatherCatV1.02B3,2013-01-27 00:13:00,
2013-01-26 19:18:00,15.9,-1.6,30.22,WNW,292,4.0,12.0,45,0.00,,,0.00,WeatherCatV1.02B3,2013-01-27 00:18:00,
2013-01-26 19:23:00,15.8,-1.7,30.22,WNW,302,2.0,7.0,45,0.00,,,0.00,WeatherCatV1.02B3,2013-01-27 00:23:00,
2013-01-26 19:28:00,15.8,-1.3,30.22,NNW,346,7.0,17.0,46,0.00,,,0.00,WeatherCatV1.02B3,2013-01-27 00:28:00,
2013-01-26 19:33:00,15.7,-1.4,30.22,North,350,4.0,11.0,46,0.00,,,0.00,WeatherCatV1.02B3,2013-01-27 00:33:00,
2013-01-26 19:38:00,15.7,-0.9,30.22,West,268,1.0,6.0,47,0.00,,,0.00,WeatherCatV1.02B3,2013-01-27 00:38:00,
2013-01-26 19:43:00,15.5,-0.6,30.22,WNW,285,5.0,9.0,48,0.00,,,0.00,WeatherCatV1.02B3,2013-01-27 00:43:00,
2013-01-26 19:48:00,15.3,-0.8,30.22,West,266,3.0,10.0,48,0.00,,,0.00,WeatherCatV1.02B3,2013-01-27 00:48:00,
2013-01-26 19:53:00,15.3,-0.4,30.23,NW,304,1.0,5.0,49,0.00,,,0.00,WeatherCatV1.02B3,2013-01-27 00:53:00,
2013-01-26 20:00:00,15.1,-0.6,30.23,WNW,294,8.0,8.0,49,0.00,,,0.00,WeatherCatV1.02B3,2013-01-27 01:00:00,
2013-01-26 20:05:00,15.1,-0.6,30.23,WNW,288,9.0,9.0,49,0.00,,,0.00,WeatherCatV1.02B3,2013-01-27 01:05:00,
2013-01-26 20:10:00,15.0,-0.7,30.23,WSW,252,3.0,15.0,49,0.00,,,0.00,WeatherCatV1.02B3,2013-01-27 01:10:00,
2013-01-26 20:15:00,15.0,-0.7,30.22,WNW,282,5.0,9.0,49,0.00,,,0.00,WeatherCatV1.02B3,2013-01-27 01:15:00,
2013-01-26 20:20:00,14.9,-0.8,30.22,WNW,301,3.0,16.0,49,0.00,,,0.00,WeatherCatV1.02B3,2013-01-27 01:20:00,
2013-01-26 20:25:00,14.8,-0.4,30.23,WNW,290,0.0,6.0,50,0.00,,,0.00,WeatherCatV1.02B3,2013-01-27 01:25:00,
2013-01-26 20:30:00,14.5,-0.7,30.23,NNE,14,5.0,9.0,50,0.00,,,0.00,WeatherCatV1.02B3,2013-01-27 01:30:00,
2013-01-26 20:35:00,14.6,-0.6,30.23,West,275,0.0,10.0,50,0.00,,,0.00,WeatherCatV1.02B3,2013-01-27 01:35:00,
2013-01-26 20:40:00,14.4,-0.4,30.23,West,268,5.0,10.0,51,0.00,,,0.00,WeatherCatV1.02B3,2013-01-27 01:40:00,
2013-01-26 20:45:00,14.4,-0.4,30.23,West,276,3.0,11.0,51,0.00,,,0.00,WeatherCatV1.02B3,2013-01-27 01:45:00,
2013-01-26 20:50:00,14.3,-0.5,30.23,West,281,9.0,11.0,51,0.00,,,0.00,WeatherCatV1.02B3,2013-01-27 01:50:00,
2013-01-26 20:55:00,14.2,-0.6,30.24,WNW,282,2.0,10.0,51,0.00,,,0.00,WeatherCatV1.02B3,2013-01-27 01:55:00,
2013-01-26 21:00:00,14.1,-0.3,30.24,West,281,4.0,8.0,52,0.00,,,0.00,WeatherCatV1.02B3,2013-01-27 02:00:00,
2013-01-26 21:05:00,14.1,-0.3,30.24,West,279,3.0,8.0,52,0.00,,,0.00,WeatherCatV1.02B3,2013-01-27 02:05:00,
2013-01-26 21:10:00,14.0,-0.3,30.24,West,272,0.0,7.0,52,0.00,,,0.00,WeatherCatV1.02B3,2013-01-27 02:10:00,
2013-01-26 21:15:00,13.9,-0.4,30.24,NW,304,5.0,9.0,52,0.00,,,0.00,WeatherCatV1.02B3,2013-01-27 02:15:00,
2013-01-26 21:20:00,13.9,0.0,30.25,West,271,1.0,5.0,53,0.00,,,0.00,WeatherCatV1.02B3,2013-01-27 02:20:00,
2013-01-26 21:25:00,13.7,-0.2,30.25,WNW,289,0.0,4.0,53,0.00,,,0.00,WeatherCatV1.02B3,2013-01-27 02:25:00,
2013-01-26 21:30:00,13.6,0.1,30.25,WNW,286,4.0,8.0,54,0.00,,,0.00,WeatherCatV1.02B3,2013-01-27 02:30:00,
2013-01-26 21:35:00,13.7,0.2,30.25,West,273,4.0,4.0,54,0.00,,,0.00,WeatherCatV1.02B3,2013-01-27 02:35:00,
2013-01-26 21:40:00,13.6,0.1,30.25,NW,318,8.0,9.0,54,0.00,,,0.00,WeatherCatV1.02B3,2013-01-27 02:40:00,
2013-01-26 21:45:00,13.5,0.0,30.26,West,278,3.0,8.0,54,0.00,,,0.00,WeatherCatV1.02B3,2013-01-27 02:45:00,
2013-01-26 21:50:00,13.4,-0.1,30.26,NW,308,7.0,8.0,54,0.00,,,0.00,WeatherCatV1.02B3,2013-01-27 02:50:00,
2013-01-26 21:55:00,13.4,0.3,30.26,WNW,296,2.0,10.0,55,0.00,,,0.00,WeatherCatV1.02B3,2013-01-27 02:55:00,
2013-01-26 22:00:00,13.3,0.2,30.26,WNW,288,6.0,11.0,55,0.00,,,0.00,WeatherCatV1.02B3,2013-01-27 03:00:00,
2013-01-26 22:05:00,13.2,0.1,30.26,WNW,297,5.0,5.0,55,0.00,,,0.00,WeatherCatV1.02B3,2013-01-27 03:05:00,
2013-01-26 22:10:00,13.2,0.1,30.27,NW,309,2.0,8.0,55,0.00,,,0.00,WeatherCatV1.02B3,2013-01-27 03:10:00,
2013-01-26 22:17:00,13.1,0.0,30.27,WNW,294,3.0,3.0,55,0.00,,,0.00,WeatherCatV1.02B3,2013-01-27 03:17:00,
2013-01-26 22:22:00,13.1,0.4,30.27,WNW,293,6.0,9.0,56,0.00,,,0.00,WeatherCatV1.02B3,2013-01-27 03:22:00,
2013-01-26 22:27:00,13.1,0.4,30.27,WNW,289,4.0,8.0,56,0.00,,,0.00,WeatherCatV1.02B3,2013-01-27 03:27:00,
2013-01-26 22:32:00,13.1,0.4,30.27,WNW,290,3.0,8.0,56,0.00,,,0.00,WeatherCatV1.02B3,2013-01-27 03:32:00,
2013-01-26 22:37:00,13.0,0.3,30.28,WNW,286,6.0,10.0,56,0.00,,,0.00,WeatherCatV1.02B3,2013-01-27 03:37:00,
2013-01-26 22:42:00,13.0,0.3,30.28,WNW,291,1.0,2.0,56,0.00,,,0.00,WeatherCatV1.02B3,2013-01-27 03:42:00,
2013-01-26 22:47:00,12.9,0.2,30.28,NNE,17,3.0,10.0,56,0.00,,,0.00,WeatherCatV1.02B3,2013-01-27 03:47:00,
2013-01-26 22:52:00,12.9,0.2,30.28,WNW,286,3.0,5.0,56,0.00,,,0.00,WeatherCatV1.02B3,2013-01-27 03:52:00,
2013-01-26 22:57:00,12.8,0.1,30.28,West,261,4.0,10.0,56,0.00,,,0.00,WeatherCatV1.02B3,2013-01-27 03:57:00,
2013-01-26 23:02:00,12.9,0.6,30.28,West,265,3.0,5.0,57,0.00,,,0.00,WeatherCatV1.02B3,2013-01-27 04:02:00,
2013-01-26 23:07:00,12.9,0.2,30.28,WNW,283,5.0,10.0,56,0.00,,,0.00,WeatherCatV1.02B3,2013-01-27 04:07:00,
2013-01-26 23:12:00,12.8,0.5,30.28,West,279,4.0,9.0,57,0.00,,,0.00,WeatherCatV1.02B3,2013-01-27 04:12:00,
2013-01-26 23:17:00,12.7,0.4,30.28,West,277,2.0,3.0,57,0.00,,,0.00,WeatherCatV1.02B3,2013-01-27 04:17:00,
2013-01-26 23:22:00,12.7,0.4,30.29,WNW,288,3.0,7.0,57,0.00,,,0.00,WeatherCatV1.02B3,2013-01-27 04:22:00,
2013-01-26 23:27:00,12.8,0.8,30.29,WNW,290,2.0,4.0,58,0.00,,,0.00,WeatherCatV1.02B3,2013-01-27 04:27:00,
2013-01-26 23:32:00,12.7,0.4,30.29,WNW,300,5.0,8.0,57,0.00,,,0.00,WeatherCatV1.02B3,2013-01-27 04:32:00,
2013-01-26 23:37:00,12.7,0.8,30.29,WNW,296,0.0,11.0,58,0.00,,,0.00,WeatherCatV1.02B3,2013-01-27 04:37:00,
2013-01-26 23:42:00,12.7,0.8,30.29,WNW,288,4.0,8.0,58,0.00,,,0.00,WeatherCatV1.02B3,2013-01-27 04:42:00,
2013-01-26 23:47:00,12.6,0.7,30.29,WNW,294,2.0,12.0,58,0.00,,,0.00,WeatherCatV1.02B3,2013-01-27 04:47:00,
2013-01-26 23:52:00,12.6,0.7,30.29,WNW,302,0.0,8.0,58,0.00,,,0.00,WeatherCatV1.02B3,2013-01-27 04:52:00,
2013-01-26 23:57:00,12.6,1.0,30.29,WNW,283,4.0,6.0,59,0.00,,,0.00,WeatherCatV1.02B3,2013-01-27 04:57:00,